Startpagina
METAR-TAF:

METAR-TAF

Vliegvelden :

Hunt Field

Lander, Wyoming, Verenigde Staten

breedte: 42-48-53N, lengte: 108-43-41W, hoogte: 1703 m

Actueel weer

Dit bericht is 54 minuten geleden gemaakt, om 10:53 UTC
Wind 4 kt uit het noordwesten
Temperatuur 16°C
Vochtigheid 45%
Druk 1021 hPa
Zicht: 16.1 km
Onbewolkt

METAR: KLND 191053Z AUTO 31004KT 10SM CLR 16/04 A3015 RMK AO2 SLP136 T01610039

Tijdstip: 05:47 (11:47 UTC)

Verwachting

Dit bericht is 27 minuten geleden gemaakt, om 11:20 UTC
Verwachting geldig van 19 om 12 UTC tot 20 om 12 UTC
Wind 6 kt uit variabele richting
Zicht: 10 km
Onbewolkt
Van 19 om 1900 UTC
Wind 9 kt uit het noorden
Zicht: 10 km
Onbewolkt
Van 20 om 0400 UTC
Wind 8 kt uit het westen
Zicht: 10 km
Onbewolkt

TAF: KLND 191120Z 1912/2012 VRB06KT P6SM SKC FM191900 35009KT P6SM SKC FM200400 26008KT P6SM SKC

Waarnemingen en weersverwachtingen van meer dan 4000 vliegvelden (METAR en TAF).

De beschikbare stations zijn de gele en rode punten op de kaart.

Ga met uw muis naar het station om de naam te zien.

Klik dan om waarnemingen en weersverwachtingen te zien.

kaart wijzigen: klik op de groene knoppen met een zwart kruis om in te zoomen, op de groene knop met een streepje om uit te zoomen of op de groene pijlen voor aangrenzende kaarten.


METAR-TAF: